CW8284 Weather Reports


Display with metric or nautical units.
time (UTC)temp
F
wind
direction
speed
MPH
gust
MPH
rain 1hr
in
rain 24hr
in
rain mn
in
humidity
%
barometer
mb
20191023000015 89 247 6.0 9.0 0.00 0.00 0.00 1013.2
20191022235916 89 225 5.0 7.0 0.00 0.00 0.00 1013.3
20191022235616 90 270 3.0 6.0 0.00 0.00 0.00 1013.1
20191022235516 90 247 3.0 5.0 0.00 0.00 0.00 1013.2
20191022235415 90 292 4.0 6.0 0.00 0.00 0.00 1013.2
20191022235316 90 202 5.0 7.0 0.00 0.00 0.00 1013.3
20191022235215 90 270 6.0 8.0 0.00 0.00 0.00 1013.2
20191022234516 91 315 5.0 6.0 0.00 0.00 0.00 1013.2
20191022234416 91 225 5.0 6.0 0.00 0.00 0.00 1013.6
20191022234316 92 247 5.0 7.0 0.00 0.00 0.00 1013.1
20191022234215 92 247 2.0 3.0 0.00 0.00 0.00 1013.1
20191022234115 92 270 2.0 3.0 0.00 0.00 0.00 1013.5
20191022234016 92 225 4.0 5.0 0.00 0.00 0.00 1013.4
20191022233916 92 225 3.0 6.0 0.00 0.00 0.00 1013.4
20191022233816 91 180 4.0 5.0 0.00 0.00 0.00 1013.4
20191022233415 92 180 3.0 4.0 0.00 0.00 0.00 1013.4
20191022233315 92 225 2.0 4.0 0.00 0.00 0.00 1013.5
20191022233216 92 157 4.0 7.0 0.00 0.00 0.00 1013.4
20191022232515 92 202 4.0 7.0 0.00 0.00 0.00 1013.7
20191022232415 92 225 5.0 6.0 0.00 0.00 0.00 1013.3
20191022232316 92 247 4.0 6.0 0.00 0.00 0.00 1013.5
20191022232215 92 247 4.0 6.0 0.00 0.00 0.00 1013.4
20191022232115 92 202 6.0 8.0 0.00 0.00 0.00 1013.6
20191022231715 93 225 4.0 6.0 0.00 0.00 0.00 1013.4
20191022231016 94 247 5.0 7.0 0.00 0.00 0.00 1013.4
20191022230616 94 225 5.0 7.0 0.00 0.00 0.00 1013.4
20191022230015 94 202 5.0 8.0 0.00 0.00 0.00 1013.4
20191022225915 94 225 6.0 8.0 0.00 0.00 0.00 1013.3
20191022225515 94 225 6.0 9.0 0.00 0.00 0.00 1013.3
20191022225415 95 225 5.0 9.0 0.00 0.00 0.00 1013.3
20191022225316 95 247 6.0 8.0 0.00 0.00 0.00 1013.4
20191022225215 96 225 5.0 7.0 0.00 0.00 0.00 1013.4
20191022224815 96 157 2.0 4.0 0.00 0.00 0.00 1013.3
20191022224715 96 225 2.0 3.0 0.00 0.00 0.00 1013.3
20191022224015 95 225 5.0 7.0 0.00 0.00 0.00 1013.1
20191022223616 96 225 5.0 10.0 0.00 0.00 0.00 1013.3
20191022223516 96 202 4.0 8.0 0.00 0.00 0.00 1013.2
20191022223115 97 225 1.0 1.0 0.00 0.00 0.00 1013.4
20191022222716 97 315 1.0 2.0 0.00 0.00 0.00 1013.5
20191022222615 97 135 3.0 4.0 0.00 0.00 0.00 1013.4
20191022222515 97 180 1.0 1.0 0.00 0.00 0.00 1013.4
20191022222416 97 180 1.0 2.0 0.00 0.00 0.00 1013.4
20191022222316 97 202 1.0 3.0 0.00 0.00 0.00 1013.4
20191022222215 97 247 3.0 4.0 0.00 0.00 0.00 1013.4
20191022222116 97 225 1.0 2.0 0.00 0.00 0.00 1013.4
20191022222016 97 225 1.0 2.0 0.00 0.00 0.00 1013.5
20191022221915 96 202 2.0 3.0 0.00 0.00 0.00 1013.4
20191022221816 96 225 1.0 2.0 0.00 0.00 0.00 1013.4
20191022221716 96 247 1.0 2.0 0.00 0.00 0.00 1013.6
20191022221616 96 315 2.0 4.0 0.00 0.00 0.00 1013.4
20191022221516 96 225 4.0 6.0 0.00 0.00 0.00 1013.4
20191022221416 96 180 3.0 5.0 0.00 0.00 0.00 1013.4
20191022221315 96 247 2.0 4.0 0.00 0.00 0.00 1013.6
20191022221215 96 247 4.0 5.0 0.00 0.00 0.00 1013.3
20191022220315 97 225 1.0 3.0 0.00 0.00 0.00 1013.5
20191022215916 97 135 2.0 4.0 0.00 0.00 0.00 1013.5
20191022215815 97 202 3.0 7.0 0.00 0.00 0.00 1013.6
20191022215715 97 225 3.0 4.0 0.00 0.00 0.00 1013.6
20191022215315 97 225 2.0 3.0 0.00 0.00 0.00 1013.5
20191022214715 97 247 4.0 4.0 0.00 0.00 0.00 1013.4
20191022214016 96 202 0.0 1.0 0.00 0.00 0.00 1013.6
20191022213615 97 225 1.0 2.0 0.00 0.00 0.00 1013.6
20191022213515 96 180 2.0 4.0 0.00 0.00 0.00 1013.8
20191022213415 96 180 1.0 2.0 0.00 0.00 0.00 1013.6
20191022213016 96 112 2.0 4.0 0.00 0.00 0.00 1013.7
20191022212915 96 225 1.0 1.0 0.00 0.00 0.00 1013.8
20191022212816 96 180 1.0 2.0 0.00 0.00 0.00 1013.8
20191022212715 96 202 2.0 4.0 0.00 0.00 0.00 1014.0
20191022212616 96 157 1.0 4.0 0.00 0.00 0.00 1013.8
20191022212515 96 135 1.0 2.0 0.00 0.00 0.00 1013.8
20191022212115 96 225 3.0 6.0 0.00 0.00 0.00 1013.9
20191022211716 95 90 1.0 4.0 0.00 0.00 0.00 1013.9
20191022211315 95 292 2.0 3.0 0.00 0.00 0.00 1013.9
20191022211215 95 202 3.0 6.0 0.00 0.00 0.00 1013.9
20191022210915 95 180 2.0 4.0 0.00 0.00 0.00 1014.3
20191022210815 95 202 4.0 5.0 0.00 0.00 0.00 1014.1
20191022210715 95 225 4.0 7.0 0.00 0.00 0.00 1014.0
20191022210315 94 45 1.0 2.0 0.00 0.00 0.00 1014.1
20191022210215 94 292 2.0 3.0 0.00 0.00 0.00 1014.2
20191022210115 94 45 1.0 2.0 0.00 0.00 0.00 1014.1
20191022210015 93 270 1.0 1.0 0.00 0.00 0.00 1014.2
20191022205916 94 337 1.0 3.0 0.00 0.00 0.00 1014.2
20191022205816 94 0 2.0 4.0 0.00 0.00 0.00 1014.3
20191022205715 94 157 2.0 4.0 0.00 0.00 0.00 1014.3
20191022205616 95 337 2.0 3.0 0.00 0.00 0.00 1014.3
20191022205515 94 315 2.0 2.0 0.00 0.00 0.00 1014.3
20191022205116 94 225 5.0 7.0 0.00 0.00 0.00 1014.3
20191022204115 94 225 4.0 7.0 0.00 0.00 0.00 1014.4
20191022203715 94 135 1.0 2.0 0.00 0.00 0.00 1014.6
20191022203315 94 292 1.0 2.0 0.00 0.00 0.00 1014.6
20191022203215 94 315 1.0 3.0 0.00 0.00 0.00 1014.7
20191022202916 93 135 1.0 2.0 0.00 0.00 0.00 1014.7
20191022202815 93 270 1.0 2.0 0.00 0.00 0.00 1014.7
20191022202716 93 180 0.0 1.0 0.00 0.00 0.00 1014.7
20191022202616 93 247 2.0 3.0 0.00 0.00 0.00 1014.8
20191022202216 93 157 1.0 3.0 0.00 0.00 0.00 1015.0
20191022202115 92 247 2.0 4.0 0.00 0.00 0.00 1015.0
20191022202015 92 180 2.0 2.0 0.00 0.00 0.00 1015.0
20191022201616 92 247 2.0 4.0 0.00 0.00 0.00 1015.2
20191022201516 92 225 1.0 2.0 0.00 0.00 0.00 1015.3
20191022201415 92 225 3.0 4.0 0.00 0.00 0.00 1015.2
20191022200815 92 135 1.0 3.0 0.00 0.00 0.00 1015.3
20191022200715 92 157 0.0 1.0 0.00 0.00 0.00 1015.4
20191022200615 92 225 1.0 2.0 0.00 0.00 0.00 1015.3
20191022200515 92 180 0.0 1.0 0.00 0.00 0.00 1015.2
20191022200415 92 157 1.0 2.0 0.00 0.00 0.00 1015.3
20191022200316 92 225 2.0 3.0 0.00 0.00 0.00 1015.4
20191022200216 92 225 3.0 4.0 0.00 0.00 0.00 1015.4
20191022195915 92 225 1.0 2.0 0.00 0.00 0.00 1015.4
20191022195315 91 225 1.0 1.0 0.00 0.00 0.00 1015.4
20191022195215 91 292 1.0 2.0 0.00 0.00 0.00 1015.6
20191022195115 91 202 1.0 3.0 0.00 0.00 0.00 1015.6
20191022195016 91 202 0.0 1.0 0.00 0.00 0.00 1015.8
20191022194916 91 180 2.0 4.0 0.00 0.00 0.00 1015.9
20191022194516 91 180 1.0 2.0 0.00 0.00 0.00 1015.9
20191022194416 91 202 0.0 1.0 0.00 0.00 0.00 1015.8
20191022194116 91 112 2.0 3.0 0.00 0.00 0.00 1015.8
20191022194015 90 180 0.0 2.0 0.00 0.00 0.00 1015.8
20191022193616 90 180 1.0 3.0 0.00 0.00 0.00 1016.3
20191022193516 90 225 2.0 4.0 0.00 0.00 0.00 1016.3
20191022193415 90 225 2.0 4.0 0.00 0.00 0.00 1016.0
20191022193315 90 247 3.0 5.0 0.00 0.00 0.00 1016.2
20191022192915 89 315 2.0 4.0 0.00 0.00 0.00 1016.2
20191022192216 89 180 2.0 3.0 0.00 0.00 0.00 1016.2
20191022191816 89 180 1.0 2.0 0.00 0.00 0.00 1016.4
20191022191515 89 157 0.0 2.0 0.00 0.00 0.00 1016.5
20191022191216 89 225 2.0 3.0 0.00 0.00 0.00 1016.4
20191022191115 90 225 1.0 3.0 0.00 0.00 0.00 1016.3
20191022190715 90 337 1.0 3.0 0.00 0.00 0.00 1016.4
20191022190615 90 135 1.0 2.0 0.00 0.00 0.00 1016.4
20191022190515 89 270 2.0 3.0 0.00 0.00 0.00 1016.5
20191022190415 89 0 2.0 3.0 0.00 0.00 0.00 1016.4
20191022190316 89 292 0.0 1.0 0.00 0.00 0.00 1016.5
20191022190215 89 225 1.0 2.0 0.00 0.00 0.00 1016.4
20191022190115 89 247 2.0 3.0 0.00 0.00 0.00 1016.4
20191022185716 88 135 0.0 1.0 0.00 0.00 0.00 1016.5
20191022185616 88 225 1.0 4.0 0.00 0.00 0.00 1016.9
20191022185515 88 225 0.0 2.0 0.00 0.00 0.00 1016.9
20191022185415 88 90 0.0 0.0 0.00 0.00 0.00 1017.0
20191022185315 88 225 1.0 2.0 0.00 0.00 0.00 1016.7
20191022185215 88 225 2.0 4.0 0.00 0.00 0.00 1016.8
20191022185115 88 157 1.0 2.0 0.00 0.00 0.00 1016.8
20191022185015 88 270 1.0 2.0 0.00 0.00 0.00 1016.9
20191022184916 89 157 1.0 2.0 0.00 0.00 0.00 1016.7
20191022184516 88 45 1.0 2.0 0.00 0.00 0.00 1016.9
20191022184415 88 112 1.0 2.0 0.00 0.00 0.00 1016.9
20191022184016 87 180 2.0 3.0 0.00 0.00 0.00 1016.9
20191022183615 87 180 0.0 1.0 0.00 0.00 0.00 1017.1
20191022183515 87 135 1.0 2.0 0.00 0.00 0.00 1017.1
20191022183416 86 225 1.0 2.0 0.00 0.00 0.00 1017.1
20191022182715 85 180 2.0 3.0 0.00 0.00 0.00 1017.0
20191022182615 85 247 1.0 2.0 0.00 0.00 0.00 1016.9
20191022182515 85 157 1.0 3.0 0.00 0.00 0.00 1017.4
20191022182415 85 135 1.0 2.0 0.00 0.00 0.00 1016.9
20191022182315 86 225 0.0 0.0 0.00 0.00 0.00 1016.8
20191022182015 85 225 0.0 1.0 0.00 0.00 0.00 1016.8
20191022181915 85 315 1.0 2.0 0.00 0.00 0.00 1017.2
20191022181815 85 157 0.0 1.0 0.00 0.00 0.00 1017.2
20191022181416 85 157 0.0 0.0 0.00 0.00 0.00 1016.9
20191022181316 85 292 1.0 1.0 0.00 0.00 0.00 1017.2
20191022181215 84 337 1.0 1.0 0.00 0.00 0.00 1017.2
20191022181115 84 337 0.0 1.0 0.00 0.00 0.00 1017.1
20191022181016 83 90 0.0 1.0 0.00 0.00 0.00 1017.3
20191022180915 83 157 1.0 1.0 0.00 0.00 0.00 1017.3
20191022180815 83 225 2.0 3.0 0.00 0.00 0.00 1017.3
20191022180415 84 202 0.0 0.0 0.00 0.00 0.00 1017.4
20191022180315 83 180 0.0 0.0 0.00 0.00 0.00 1017.3
20191022180215 83 135 1.0 1.0 0.00 0.00 0.00 1017.4
20191022180115 82 112 0.0 1.0 0.00 0.00 0.00 1017.5
20191022180015 82 157 0.0 0.0 0.00 0.00 0.00 1017.4
20191022175916 82 202 1.0 1.0 0.00 0.00 0.00 1017.5
20191022175815 82 180 2.0 3.0 0.00 0.00 0.00 1017.3
20191022175715 82 135 1.0 3.0 0.00 0.00 0.00 1017.5
20191022175415 81 202 1.0 2.0 0.00 0.00 0.00 1017.6
20191022175115 81 135 0.0 1.0 0.00 0.00 0.00 1017.3
20191022174716 81 157 2.0 3.0 0.00 0.00 0.00 1017.5
20191022174615 80 135 1.0 1.0 0.00 0.00 0.00 1017.5
20191022174515 80 45 0.0 0.0 0.00 0.00 0.00 1017.6
20191022174416 81 225 0.0 1.0 0.00 0.00 0.00 1017.5
20191022174315 81 202 0.0 2.0 0.00 0.00 0.00 1017.6
20191022173915 81 157 0.0 1.0 0.00 0.00 0.00 1017.5
20191022173816 80 157 1.0 2.0 0.00 0.00 0.00 1017.7
20191022173516 80 202 0.0 1.0 0.00 0.00 0.00 1017.6
20191022172416 79 157 1.0 2.0 0.00 0.00 0.00 1017.5
20191022172315 79 225 0.0 2.0 0.00 0.00 0.00 1017.7
20191022171915 79 157 0.0 1.0 0.00 0.00 0.00 1017.7
20191022171515 80 225 0.0 1.0 0.00 0.00 0.00 1017.8
20191022171115 82 0 0.0 1.0 0.00 0.00 0.00 1017.9
20191022171016 81 45 1.0 3.0 0.00 0.00 0.00 1018.0
20191022170915 82 0 2.0 3.0 0.00 0.00 0.00 1017.8
20191022170216 79 45 2.0 3.0 0.00 0.00 0.00 1017.9
20191022170116 78 0 2.0 3.0 0.00 0.00 0.00 1017.8
20191022165715 75 67 1.0 3.0 0.00 0.00 0.00 1017.8
20191022165615 75 112 0.0 1.0 0.00 0.00 0.00 1017.9
20191022165515 75 90 0.0 0.0 0.00 0.00 0.00 1018.0
20191022165416 75 135 0.0 0.0 0.00 0.00 0.00 1017.8
20191022165315 74 225 0.0 1.0 0.00 0.00 0.00 1017.8
20191022164915 74 157 1.0 2.0 0.00 0.00 0.00 1017.9
20191022164815 74 202 0.0 1.0 0.00 0.00 0.00 1017.8
20191022164716 74 45 0.0 0.0 0.00 0.00 0.00 1017.9
20191022164316 73 337 1.0 1.0 0.00 0.00 0.00 1017.8
20191022163915 73 202 0.0 0.0 0.00 0.00 0.00 1018.0
20191022163815 73 180 0.0 1.0 0.00 0.00 0.00 1017.9
20191022163715 73 135 0.0 0.0 0.00 0.00 0.00 1017.7
20191022163315 73 112 0.0 0.0 0.00 0.00 0.00 1017.8
20191022163216 73 180 0.0 0.0 0.00 0.00 0.00 1017.8
20191022162815 73 135 0.0 0.0 0.00 0.00 0.00 1017.9
20191022162516 74 90 1.0 1.0 0.00 0.00 0.00 1017.7
20191022162415 74 45 0.0 1.0 0.00 0.00 0.00 1017.8
20191022161715 72 22 0.0 0.0 0.00 0.00 0.00 1017.8
20191022161316 71 90 0.0 0.0 0.00 0.00 0.00 1017.8
20191022161216 71 90 0.0 0.0 0.00 0.00 0.00 1017.9
20191022161115 70 157 0.0 0.0 0.00 0.00 0.00 1017.8
20191022161016 70 180 0.0 0.0 0.00 0.00 0.00 1017.8
20191022160916 70 225 0.0 0.0 0.00 0.00 0.00 1017.8
20191022160515 69 202 0.0 0.0 0.00 0.00 0.00 1017.8
20191022155615 67 0 1.0 1.0 0.00 0.00 0.00 1017.8
20191022155515 67 315 0.0 1.0 0.00 0.00 0.00 1017.8
20191022155415 67 270 0.0 0.0 0.00 0.00 0.00 1017.8
20191022155315 66 247 0.0 0.0 0.00 0.00 0.00 1017.8
20191022155215 66 270 0.0 0.0 0.00 0.00 0.00 1017.7
20191022155116 66 225 0.0 0.0 0.00 0.00 0.00 1017.8
20191022155015 66 225 0.0 0.0 0.00 0.00 0.00 1017.8
20191022154916 65 225 0.0 0.0 0.00 0.00 0.00 1017.7
20191022154816 65 180 0.0 0.0 0.00 0.00 0.00 1017.8
20191022154715 65 180 0.0 0.0 0.00 0.00 0.00 1017.7
20191022154316 64 247 0.0 0.0 0.00 0.00 0.00 1017.8
20191022154215 64 22 0.0 0.0 0.00 0.00 0.00 1017.8
20191022154115 64 22 0.0 0.0 0.00 0.00 0.00 1017.8
20191022154015 64 45 0.0 0.0 0.00 0.00 0.00 1017.8
20191022153916 64 45 0.0 0.0 0.00 0.00 0.00 1017.7
20191022153815 63 22 0.0 0.0 0.00 0.00 0.00 1017.6
20191022153415 63 22 0.0 0.0 0.00 0.00 0.00 1017.8
20191022153015 62 45 0.0 1.0 0.00 0.00 0.00 1017.7
20191022152916 62 45 0.0 0.0 0.00 0.00 0.00 1017.6
20191022152815 61 22 0.0 0.0 0.00 0.00 0.00 1017.6
20191022152716 61 22 0.0 0.0 0.00 0.00 0.00 1017.6
20191022152316 61 22 0.0 0.0 0.00 0.00 0.00 1017.7
20191022152215 61 22 0.0 0.0 0.00 0.00 0.00 1017.6
20191022152116 61 22 0.0 0.0 0.00 0.00 0.00 1017.6
20191022152015 61 22 0.0 0.0 0.00 0.00 0.00 1017.5
20191022151915 60 0 0.0 0.0 0.00 0.00 0.00 1017.4
20191022151816 60 0 0.0 0.0 0.00 0.00 0.00 1017.3
20191022151715 60 22 0.0 0.0 0.00 0.00 0.00 1017.6
20191022151615 60 22 0.0 0.0 0.00 0.00 0.00 1017.4
20191022151516 60 22 0.0 0.0 0.00 0.00 0.00 1017.5
20191022151115 60 0 1.0 1.0 0.00 0.00 0.00 1017.4
20191022151016 60 0 0.0 1.0 0.00 0.00 0.00 1017.3
20191022150915 60 0 0.0 0.0 0.00 0.00 0.00 1017.3
20191022150815 60 337 0.0 0.0 0.00 0.00 0.00 1017.3
20191022150715 60 337 0.0 1.0 0.00 0.00 0.00 1017.3
20191022145815 58 180 0.0 0.0 0.00 0.00 0.00 1017.3
20191022145717 58 180 0.0 0.0 0.00 0.00 0.00 1017.3
20191022145315 57 315 0.0 0.0 0.00 0.00 0.00 1017.0
20191022145216 57 292 0.0 1.0 0.00 0.00 0.00 1017.2
20191022145115 57 292 1.0 1.0 0.00 0.00 0.00 1017.1
20191022145016 57 292 1.0 1.0 0.00 0.00 0.00 1016.9
20191022144916 56 315 0.0 1.0 0.00 0.00 0.00 1017.3
20191022144818 56 270 0.0 1.0 0.00 0.00 0.00 1017.2
20191022144716 57 225 0.0 0.0 0.00 0.00 0.00 1016.8
20191022144416 56 0 0.0 0.0 0.00 0.00 0.00 1017.3
20191022143115 55 270 0.0 0.0 0.00 0.00 0.00 1016.8
20191022142817 55 337 0.0 0.0 0.00 0.00 0.00 1017.0
20191022142115 55 337 0.0 0.0 0.00 0.00 0.00 1017.0
20191022141715 54 337 0.0 1.0 0.00 0.00 0.00 1017.0
20191022140516 54 202 0.0 0.0 0.00 0.00 0.00 1017.0
20191022140116 54 22 0.0 0.0 0.00 0.00 0.00 1016.8
20191022135716 55 247 0.0 1.0 0.00 0.00 0.00 1016.8
20191022135615 54 247 0.0 0.0 0.00 0.00 0.00 1016.8
20191022135215 54 315 0.0 0.0 0.00 0.00 0.00 1016.9
20191022134515 54 0 0.0 1.0 0.00 0.00 0.00 1016.9
20191022134115 55 337 0.0 0.0 0.00 0.00 0.00 1017.0
20191022132815 55 337 0.0 0.0 0.00 0.00 0.00 1016.8
20191022132715 55 337 0.0 0.0 0.00 0.00 0.00 1016.9
20191022132316 55 337 0.0 0.0 0.00 0.00 0.00 1016.8
20191022132216 56 337 0.0 0.0 0.00 0.00 0.00 1016.7
20191022132115 56 22 0.0 0.0 0.00 0.00 0.00 1016.7
20191022131716 55 292 0.0 0.0 0.00 0.00 0.00 1016.6
20191022131615 55 337 0.0 0.0 0.00 0.00 0.00 1016.5
20191022131517 55 315 0.0 0.0 0.00 0.00 0.00 1016.7
20191022131115 56 0 0.0 0.0 0.00 0.00 0.00 1016.7
20191022131015 56 337 0.0 0.0 0.00 0.00 0.00 1016.5
20191022130915 55 337 0.0 0.0 0.00 0.00 0.00 1016.6
20191022130816 55 292 0.0 0.0 0.00 0.00 0.00 1016.7
20191022130715 55 337 0.0 0.0 0.00 0.00 0.00 1016.8
20191022130615 55 337 0.0 0.0 0.00 0.00 0.00 1016.6
20191022130515 55 337 0.0 0.0 0.00 0.00 0.00 1016.5
20191022130415 55 0 0.0 1.0 0.00 0.00 0.00 1016.7
20191022130315 55 337 0.0 1.0 0.00 0.00 0.00 1016.5
20191022130216 55 90 0.0 0.0 0.00 0.00 0.00 1016.6
20191022125915 56 202 0.0 0.0 0.00 0.00 0.00 1016.7
20191022125815 56 225 0.0 0.0 0.00 0.00 0.00 1016.6
20191022125516 55 337 0.0 1.0 0.00 0.00 0.00 1016.8
20191022125415 56 337 0.0 1.0 0.00 0.00 0.00 1016.6
20191022124716 56 135 0.0 0.0 0.00 0.00 0.00 1016.6
20191022124615 56 157 0.0 0.0 0.00 0.00 0.00 1016.6
20191022124515 56 225 0.0 0.0 0.00 0.00 0.00 1016.8
20191022124115 56 337 0.0 0.0 0.00 0.00 0.00 1016.5
20191022124016 56 0 0.0 0.0 0.00 0.00 0.00 1016.4
20191022123915 56 0 0.0 0.0 0.00 0.00 0.00 1016.3
20191022123816 55 22 0.0 0.0 0.00 0.00 0.00 1016.7
20191022123716 55 22 0.0 0.0 0.00 0.00 0.00 1016.5
20191022123615 55 22 0.0 0.0 0.00 0.00 0.00 1016.4
20191022123516 56 67 0.0 0.0 0.00 0.00 0.00 1016.3
20191022123216 57 45 0.0 0.0 0.00 0.00 0.00 1016.6
20191022123116 56 22 0.0 0.0 0.00 0.00 0.00 1016.6
20191022123016 56 0 0.0 0.0 0.00 0.00 0.00 1016.4
20191022122915 56 337 0.0 0.0 0.00 0.00 0.00 1016.6
20191022122816 56 337 0.0 0.0 0.00 0.00 0.00 1016.4
20191022122416 55 337 0.0 0.0 0.00 0.00 0.00 1016.2
20191022122016 55 0 0.0 0.0 0.00 0.00 0.00 1016.5
20191022121916 55 90 0.0 0.0 0.00 0.00 0.00 1016.3
20191022121815 55 337 0.0 0.0 0.00 0.00 0.00 1016.5
20191022121715 55 0 0.0 0.0 0.00 0.00 0.00 1016.3
20191022121615 55 45 0.0 0.0 0.00 0.00 0.00 1016.5
20191022121515 55 0 0.0 0.0 0.00 0.00 0.00 1016.5
20191022121415 56 337 0.0 0.0 0.00 0.00 0.00 1016.4
20191022121316 56 337 0.0 0.0 0.00 0.00 0.00 1016.3
20191022121215 56 337 0.0 0.0 0.00 0.00 0.00 1016.2
20191022121115 56 337 0.0 0.0 0.00 0.00 0.00 1016.4
20191022121015 56 337 0.0 0.0 0.00 0.00 0.00 1016.3
20191022120615 56 0 0.0 0.0 0.00 0.00 0.00 1016.2
20191022120516 56 337 0.0 0.0 0.00 0.00 0.00 1016.3
20191022120415 56 337 0.0 0.0 0.00 0.00 0.00 1016.3
20191022120315 56 0 0.0 0.0 0.00 0.00 0.00 1016.3
20191022120216 56 0 0.0 0.0 0.00 0.00 0.00 1016.2
20191022120116 56 0 0.0 0.0 0.00 0.00 0.00 1016.3
20191022120015 56 0 0.0 0.0 0.00 0.00 0.00 1016.4
20191022115615 56 315 0.0 0.0 0.00 0.00 0.00 1016.2
20191022115515 56 315 0.0 0.0 0.00 0.00 0.00 1016.3
20191022115116 56 315 0.0 0.0 0.00 0.00 0.00 1016.2
20191022115015 56 315 0.0 0.0 0.00 0.00 0.00 1016.2
20191022114915 55 337 0.0 0.0 0.00 0.00 0.00 1016.3
20191022114815 55 315 0.0 0.0 0.00 0.00 0.00 1016.2
20191022114715 56 292 0.0 0.0 0.00 0.00 0.00 1016.4
20191022114616 56 247 0.0 0.0 0.00 0.00 0.00 1016.3
20191022114515 56 270 0.0 0.0 0.00 0.00 0.00 1016.4
20191022114416 56 202 0.0 0.0 0.00 0.00 0.00 1016.3
20191022114316 56 202 0.0 0.0 0.00 0.00 0.00 1016.3
20191022114215 56 0 0.0 0.0 0.00 0.00 0.00 1016.3
20191022114115 56 0 0.0 0.0 0.00 0.00 0.00 1016.5
20191022114015 56 0 0.0 0.0 0.00 0.00 0.00 1016.3
20191022113616 56 315 0.0 0.0 0.00 0.00 0.00 1016.4
20191022113515 56 337 0.0 0.0 0.00 0.00 0.00 1016.4
20191022113416 56 315 0.0 0.0 0.00 0.00 0.00 1016.4
20191022113316 56 337 0.0 0.0 0.00 0.00 0.00 1016.3
20191022113216 56 315 0.0 0.0 0.00 0.00 0.00 1016.3
20191022113116 56 337 0.0 0.0 0.00 0.00 0.00 1016.3
20191022113015 56 292 0.0 0.0 0.00 0.00 0.00 1016.4
20191022112916 56 292 0.0 0.0 0.00 0.00 0.00 1016.3
20191022112815 56 292 0.0 0.0 0.00 0.00 0.00 1016.3
20191022112716 56 292 0.0 0.0 0.00 0.00 0.00 1016.3
20191022112615 56 225 0.0 0.0 0.00 0.00 0.00 1016.3
20191022112215 56 22 0.0 0.0 0.00 0.00 0.00 1016.6
20191022111815 56 22 0.0 0.0 0.00 0.00 0.00 1016.4
20191022111716 56 0 0.0 0.0 0.00 0.00 0.00 1016.4
20191022111615 56 337 0.0 0.0 0.00 0.00 0.00 1016.5
20191022111515 56 292 0.0 0.0 0.00 0.00 0.00 1016.4
20191022111415 56 292 0.0 0.0 0.00 0.00 0.00 1016.3
20191022111315 56 292 0.0 0.0 0.00 0.00 0.00 1016.3
20191022111216 56 225 0.0 0.0 0.00 0.00 0.00 1016.3
20191022111115 56 337 0.0 0.0 0.00 0.00 0.00 1016.3
20191022111015 56 225 0.0 0.0 0.00 0.00 0.00 1016.5
20191022110915 56 202 0.0 0.0 0.00 0.00 0.00 1016.5
20191022110816 56 202 0.0 0.0 0.00 0.00 0.00 1016.3
20191022110715 56 202 0.0 0.0 0.00 0.00 0.00 1016.4
20191022110616 56 202 0.0 0.0 0.00 0.00 0.00 1016.4
20191022110215 57 337 0.0 0.0 0.00 0.00 0.00 1016.3
20191022105816 57 337 0.0 0.0 0.00 0.00 0.00 1016.4
20191022105716 57 337 0.0 0.0 0.00 0.00 0.00 1016.3
20191022105015 57 315 0.0 0.0 0.00 0.00 0.00 1016.4
20191022104915 57 292 0.0 0.0 0.00 0.00 0.00 1016.3
20191022104815 57 315 0.0 0.0 0.00 0.00 0.00 1016.2
20191022104715 57 292 0.0 0.0 0.00 0.00 0.00 1016.5
20191022104316 57 0 0.0 0.0 0.00 0.00 0.00 1016.4
20191022104216 57 0 0.0 0.0 0.00 0.00 0.00 1016.4
20191022104115 56 337 0.0 1.0 0.00 0.00 0.00 1016.5
20191022103415 57 315 0.0 0.0 0.00 0.00 0.00 1016.3
20191022103316 57 337 0.0 0.0 0.00 0.00 0.00 1016.3
20191022103215 57 337 0.0 0.0 0.00 0.00 0.00 1016.2
20191022103115 57 0 0.0 0.0 0.00 0.00 0.00 1016.5
20191022103015 57 337 0.0 0.0 0.00 0.00 0.00 1016.4
20191022102916 57 337 0.0 0.0 0.00 0.00 0.00 1016.4
20191022102815 57 337 0.0 0.0 0.00 0.00 0.00 1016.5
20191022102715 57 202 0.0 0.0 0.00 0.00 0.00 1016.5
20191022102315 58 225 0.0 0.0 0.00 0.00 0.00 1016.5
20191022102216 58 180 0.0 1.0 0.00 0.00 0.00 1016.7
20191022102116 58 202 0.0 0.0 0.00 0.00 0.00 1016.7
20191022102015 58 180 0.0 0.0 0.00 0.00 0.00 1016.6
20191022101616 58 337 0.0 0.0 0.00 0.00 0.00 1016.6
20191022101215 58 337 0.0 0.0 0.00 0.00 0.00 1016.6
20191022100515 58 0 0.0 0.0 0.00 0.00 0.00 1016.8
20191022100415 58 337 0.0 0.0 0.00 0.00 0.00 1016.7
20191022100315 58 337 0.0 0.0 0.00 0.00 0.00 1016.7
20191022100215 58 337 0.0 0.0 0.00 0.00 0.00 1016.7
20191022095815 58 337 0.0 0.0 0.00 0.00 0.00 1016.9
20191022095715 58 337 0.0 0.0 0.00 0.00 0.00 1016.9
20191022094716 58 0 0.0 1.0 0.00 0.00 0.00 1016.9
20191022094616 58 0 0.0 1.0 0.00 0.00 0.00 1017.0
20191022094515 58 337 1.0 1.0 0.00 0.00 0.00 1016.9
20191022094415 58 0 1.0 1.0 0.00 0.00 0.00 1016.9
20191022094015 58 0 1.0 1.0 0.00 0.00 0.00 1017.0
20191022093916 58 0 0.0 1.0 0.00 0.00 0.00 1017.0
20191022093815 58 0 0.0 0.0 0.00 0.00 0.00 1017.0
20191022093715 58 0 0.0 0.0 0.00 0.00 0.00 1017.0
20191022093615 58 22 0.0 0.0 0.00 0.00 0.00 1017.0
20191022093015 58 337 0.0 0.0 0.00 0.00 0.00 1017.0
20191022092916 58 337 0.0 0.0 0.00 0.00 0.00 1016.9
20191022091915 59 0 0.0 0.0 0.00 0.00 0.00 1017.0
20191022091815 59 337 0.0 0.0 0.00 0.00 0.00 1016.9
20191022091715 59 315 0.0 0.0 0.00 0.00 0.00 1016.8
20191022091615 59 292 0.0 0.0 0.00 0.00 0.00 1017.0
20191022091516 59 157 1.0 1.0 0.00 0.00 0.00 1016.9
20191022091116 59 337 1.0 1.0 0.00 0.00 0.00 1016.9
20191022090716 59 0 2.0 2.0 0.00 0.00 0.00 1016.9
20191022090615 59 0 1.0 2.0 0.00 0.00 0.00 1017.0
20191022090215 58 337 0.0 1.0 0.00 0.00 0.00 1017.1
20191022090116 58 337 0.0 0.0 0.00 0.00 0.00 1017.0
20191022085115 59 22 0.0 1.0 0.00 0.00 0.00 1017.2
20191022085015 59 315 0.0 0.0 0.00 0.00 0.00 1017.0
20191022084915 59 247 0.0 0.0 0.00 0.00 0.00 1017.0
20191022084816 59 225 0.0 0.0 0.00 0.00 0.00 1017.0
20191022084715 59 225 0.0 0.0 0.00 0.00 0.00 1016.9
20191022084615 59 180 0.0 0.0 0.00 0.00 0.00 1017.1
20191022084515 59 180 0.0 0.0 0.00 0.00 0.00 1017.1
20191022084416 59 180 0.0 0.0 0.00 0.00 0.00 1017.0
20191022084316 60 180 0.0 0.0 0.00 0.00 0.00 1017.0
20191022084215 60 180 0.0 0.0 0.00 0.00 0.00 1017.1
20191022083815 59 247 0.0 0.0 0.00 0.00 0.00 1017.0
20191022083216 59 337 1.0 2.0 0.00 0.00 0.00 1017.0
20191022083116 59 0 1.0 2.0 0.00 0.00 0.00 1017.0
20191022083015 59 0 1.0 1.0 0.00 0.00 0.00 1017.0
20191022082915 59 0 1.0 1.0 0.00 0.00 0.00 1017.0
20191022082815 58 22 0.0 1.0 0.00 0.00 0.00 1016.9
20191022082715 59 22 0.0 1.0 0.00 0.00 0.00 1017.0
20191022082616 59 135 0.0 0.0 0.00 0.00 0.00 1017.0
20191022082516 59 135 0.0 0.0 0.00 0.00 0.00 1017.0
20191022082416 59 135 0.0 0.0 0.00 0.00 0.00 1017.1
20191022082015 59 135 0.0 0.0 0.00 0.00 0.00 1016.8
20191022081915 59 157 0.0 0.0 0.00 0.00 0.00 1016.8
20191022081516 59 337 0.0 1.0 0.00 0.00 0.00 1016.5
20191022081416 59 270 0.0 1.0 0.00 0.00 0.00 1016.4
20191022081315 59 292 0.0 0.0 0.00 0.00 0.00 1016.7
20191022081215 59 247 0.0 0.0 0.00 0.00 0.00 1016.6
20191022081116 59 225 0.0 0.0 0.00 0.00 0.00 1016.7
20191022081016 59 292 0.0 1.0 0.00 0.00 0.00 1016.6
20191022080916 59 315 0.0 1.0 0.00 0.00 0.00 1016.7
20191022080815 59 337 0.0 1.0 0.00 0.00 0.00 1016.6
20191022080715 59 337 0.0 0.0 0.00 0.00 0.00 1016.6
20191022080615 60 337 0.0 0.0 0.00 0.00 0.00 1016.6
20191022080515 60 337 0.0 0.0 0.00 0.00 0.00 1016.7
20191022080415 60 337 0.0 0.0 0.00 0.00 0.00 1016.7
20191022075515 60 112 0.0 0.0 0.00 0.00 0.00 1016.9
20191022075415 60 112 0.0 0.0 0.00 0.00 0.00 1016.6
20191022075315 59 112 0.0 0.0 0.00 0.00 0.00 1017.0
20191022075215 59 112 0.0 1.0 0.00 0.00 0.00 1016.8
20191022074515 60 225 0.0 0.0 0.00 0.00 0.00 1016.6
20191022074115 60 0 0.0 0.0 0.00 0.00 0.00 1016.6
20191022073716 60 225 0.0 0.0 0.00 0.00 0.00 1016.6
20191022073616 60 270 0.0 0.0 0.00 0.00 0.00 1016.9
20191022073216 60 315 0.0 0.0 0.00 0.00 0.00 1016.7
20191022073115 60 337 0.0 0.0 0.00 0.00 0.00 1016.7
20191022073015 60 337 0.0 0.0 0.00 0.00 0.00 1016.5
20191022072915 60 337 0.0 0.0 0.00 0.00 0.00 1016.6
20191022072815 60 337 0.0 0.0 0.00 0.00 0.00 1016.6
20191022072715 60 315 0.0 0.0 0.00 0.00 0.00 1016.6
20191022072615 60 315 0.0 0.0 0.00 0.00 0.00 1016.5
20191022072515 60 315 0.0 0.0 0.00 0.00 0.00 1016.5
20191022072415 60 315 0.0 0.0 0.00 0.00 0.00 1016.6
20191022072315 60 225 0.0 0.0 0.00 0.00 0.00 1016.7
20191022071415 61 337 0.0 1.0 0.00 0.00 0.00 1016.8
20191022071316 61 0 0.0 1.0 0.00 0.00 0.00 1016.6
20191022071216 61 337 0.0 0.0 0.00 0.00 0.00 1016.7
20191022071115 61 292 0.0 0.0 0.00 0.00 0.00 1016.5
20191022070515 61 337 0.0 0.0 0.00 0.00 0.00 1016.4
20191022070415 61 292 0.0 0.0 0.00 0.00 0.00 1016.6
20191022070316 62 292 0.0 0.0 0.00 0.00 0.00 1016.6
20191022070216 62 225 0.0 0.0 0.00 0.00 0.00 1016.5
20191022065815 61 0 0.0 0.0 0.00 0.00 0.00 1016.7
20191022065716 61 0 0.0 0.0 0.00 0.00 0.00 1016.6
20191022065616 61 337 0.0 0.0 0.00 0.00 0.00 1016.7
20191022065515 62 0 0.0 0.0 0.00 0.00 0.00 1016.5
20191022065416 62 112 0.0 0.0 0.00 0.00 0.00 1016.6
20191022065315 62 112 0.0 0.0 0.00 0.00 0.00 1016.6
20191022065216 62 112 0.0 0.0 0.00 0.00 0.00 1016.9
20191022065115 62 112 0.0 1.0 0.00 0.00 0.00 1016.5
20191022065015 62 45 0.0 0.0 0.00 0.00 0.00 1016.7
20191022064915 62 22 0.0 0.0 0.00 0.00 0.00 1016.7
20191022064315 61 22 1.0 1.0 0.00 0.00 0.00 1016.6
20191022063616 62 45 0.0 0.0 0.00 0.00 0.00 1016.5
20191022063516 62 45 0.0 0.0 0.00 0.00 0.00 1016.6
20191022063416 62 45 0.0 0.0 0.00 0.00 0.00 1016.6
20191022063315 62 0 0.0 0.0 0.00 0.00 0.00 1016.6
20191022063215 62 337 0.0 0.0 0.00 0.00 0.00 1016.6
20191022063115 63 292 0.0 0.0 0.00 0.00 0.00 1016.6
20191022062815 63 315 0.0 0.0 0.00 0.00 0.00 1016.6
20191022062716 63 315 0.0 0.0 0.00 0.00 0.00 1016.5
20191022062615 63 337 0.0 1.0 0.00 0.00 0.00 1016.5
20191022062515 63 337 0.0 1.0 0.00 0.00 0.00 1016.6
20191022061215 62 0 0.0 0.0 0.00 0.00 0.00 1016.8
20191022061115 62 22 0.0 0.0 0.00 0.00 0.00 1016.6
20191022061015 62 22 0.0 0.0 0.00 0.00 0.00 1016.6
20191022060915 62 337 0.0 0.0 0.00 0.00 0.00 1016.6
20191022060815 62 337 0.0 0.0 0.00 0.00 0.00 1016.6
20191022055616 63 112 0.0 0.0 0.00 0.00 0.00 1016.7
20191022055516 64 112 0.0 0.0 0.00 0.00 0.00 1016.8
20191022055415 64 112 0.0 0.0 0.00 0.00 0.00 1016.8
20191022055315 64 337 0.0 0.0 0.00 0.00 0.00 1016.7
20191022055216 64 337 0.0 0.0 0.00 0.00 0.00 1016.7
20191022055115 64 337 0.0 0.0 0.00 0.00 0.00 1016.6
20191022055016 63 337 0.0 1.0 0.00 0.00 0.00 1016.7
20191022054916 63 0 0.0 1.0 0.00 0.00 0.00 1016.7
20191022054816 63 0 0.0 1.0 0.00 0.00 0.00 1016.7
20191022054715 63 337 1.0 1.0 0.00 0.00 0.00 1016.7
20191022054315 64 247 0.0 0.0 0.00 0.00 0.00 1016.8
20191022053915 64 225 0.0 0.0 0.00 0.00 0.00 1016.7
20191022053216 64 337 0.0 0.0 0.00 0.00 0.00 1016.5
20191022053116 64 337 0.0 0.0 0.00 0.00 0.00 1016.5
20191022053015 64 337 0.0 1.0 0.00 0.00 0.00 1016.8
20191022052915 64 0 1.0 1.0 0.00 0.00 0.00 1016.5
20191022052815 64 337 0.0 1.0 0.00 0.00 0.00 1016.5
20191022052715 64 315 0.0 1.0 0.00 0.00 0.00 1016.6
20191022052315 64 225 0.0 0.0 0.00 0.00 0.00 1016.6
20191022052216 64 337 0.0 0.0 0.00 0.00 0.00 1016.4
20191022052115 64 337 0.0 0.0 0.00 0.00 0.00 1016.5
20191022052015 64 337 0.0 0.0 0.00 0.00 0.00 1016.5
20191022051615 64 22 0.0 0.0 0.00 0.00 0.00 1016.5
20191022051516 64 22 0.0 0.0 0.00 0.00 0.00 1016.4
20191022051415 64 202 0.0 0.0 0.00 0.00 0.00 1016.5
20191022051315 64 202 0.0 0.0 0.00 0.00 0.00 1016.5
20191022051215 64 292 0.0 0.0 0.00 0.00 0.00 1016.5
20191022051116 65 292 0.0 0.0 0.00 0.00 0.00 1016.5
20191022050715 65 315 0.0 0.0 0.00 0.00 0.00 1016.6
20191022050615 65 337 0.0 0.0 0.00 0.00 0.00 1016.4
20191022050516 65 337 0.0 0.0 0.00 0.00 0.00 1016.3
20191022045815 65 225 0.0 0.0 0.00 0.00 0.00 1016.6
20191022045715 65 247 0.0 0.0 0.00 0.00 0.00 1016.3
20191022045615 65 270 0.0 0.0 0.00 0.00 0.00 1016.2
20191022045515 65 292 0.0 0.0 0.00 0.00 0.00 1016.4
20191022045415 65 292 0.0 0.0 0.00 0.00 0.00 1016.0
20191022044715 66 292 0.0 0.0 0.00 0.00 0.00 1016.0
20191022044616 66 337 0.0 0.0 0.00 0.00 0.00 1016.1
20191022044516 66 337 0.0 0.0 0.00 0.00 0.00 1016.2
20191022044115 66 337 0.0 0.0 0.00 0.00 0.00 1016.3
20191022044015 66 337 0.0 0.0 0.00 0.00 0.00 1016.2
20191022043916 66 0 0.0 0.0 0.00 0.00 0.00 1015.7
20191022043615 66 22 0.0 0.0 0.00 0.00 0.00 1015.8
20191022043516 66 0 0.0 0.0 0.00 0.00 0.00 1015.9
20191022043416 66 22 0.0 0.0 0.00 0.00 0.00 1016.2
20191022043315 66 337 0.0 1.0 0.00 0.00 0.00 1015.8
20191022043215 66 337 0.0 1.0 0.00 0.00 0.00 1015.8
20191022042816 66 0 0.0 0.0 0.00 0.00 0.00 1015.8
20191022042716 66 22 0.0 0.0 0.00 0.00 0.00 1015.8
20191022042615 66 22 0.0 0.0 0.00 0.00 0.00 1016.1
20191022042216 66 45 0.0 1.0 0.00 0.00 0.00 1015.9
20191022042116 66 67 0.0 0.0 0.00 0.00 0.00 1015.9
20191022042016 66 67 0.0 1.0 0.00 0.00 0.00 1015.9
20191022041915 67 45 0.0 0.0 0.00 0.00 0.00 1015.9
20191022041815 67 22 0.0 0.0 0.00 0.00 0.00 1015.8
20191022041715 67 292 0.0 0.0 0.00 0.00 0.00 1015.8
20191022041615 67 292 0.0 0.0 0.00 0.00 0.00 1015.9
20191022041515 67 292 0.0 0.0 0.00 0.00 0.00 1015.8
20191022041115 67 292 0.0 0.0 0.00 0.00 0.00 1015.8
20191022041016 67 315 0.0 0.0 0.00 0.00 0.00 1015.9
20191022040915 67 22 0.0 0.0 0.00 0.00 0.00 1015.9
20191022040816 67 337 0.0 0.0 0.00 0.00 0.00 1015.8
20191022040715 66 0 0.0 0.0 0.00 0.00 0.00 1015.6
20191022040316 67 45 1.0 1.0 0.00 0.00 0.00 1015.8
20191022040215 67 45 1.0 1.0 0.00 0.00 0.00 1015.9
20191022035816 67 22 0.0 0.0 0.00 0.00 0.00 1015.6
20191022035715 67 0 0.0 0.0 0.00 0.00 0.00 1015.7
20191022035616 67 270 0.0 0.0 0.00 0.00 0.00 1015.7
20191022035216 68 337 0.0 0.0 0.00 0.00 0.00 1015.7
20191022035116 68 337 0.0 0.0 0.00 0.00 0.00 1015.6
20191022035015 68 337 0.0 0.0 0.00 0.00 0.00 1015.7
20191022034915 68 0 0.0 1.0 0.00 0.00 0.00 1015.7
20191022034815 68 22 0.0 1.0 0.00 0.00 0.00 1015.6
20191022034716 68 22 0.0 0.0 0.00 0.00 0.00 1015.6
20191022034316 68 22 0.0 0.0 0.00 0.00 0.00 1015.6
20191022034215 68 22 0.0 0.0 0.00 0.00 0.00 1015.6
20191022033515 68 22 0.0 0.0 0.00 0.00 0.00 1015.4
20191022033415 68 22 0.0 1.0 0.00 0.00 0.00 1015.5
20191022033315 68 22 0.0 0.0 0.00 0.00 0.00 1015.4
20191022032916 68 202 0.0 0.0 0.00 0.00 0.00 1015.5
20191022032815 68 337 0.0 0.0 0.00 0.00 0.00 1015.5
20191022032415 69 45 0.0 0.0 0.00 0.00 0.00 1015.8
20191022032315 69 180 0.0 0.0 0.00 0.00 0.00 1015.5
20191022032215 69 225 0.0 0.0 0.00 0.00 0.00 1015.6
20191022032115 69 225 0.0 0.0 0.00 0.00 0.00 1015.4
20191022032016 69 225 0.0 0.0 0.00 0.00 0.00 1015.6
20191022031915 69 270 0.0 0.0 0.00 0.00 0.00 1015.5
20191022031816 69 247 0.0 0.0 0.00 0.00 0.00 1015.6
20191022031715 69 270 0.0 0.0 0.00 0.00 0.00 1015.4
20191022031615 69 337 0.0 0.0 0.00 0.00 0.00 1015.4
20191022031516 70 22 0.0 1.0 0.00 0.00 0.00 1015.3
20191022031115 70 0 0.0 0.0 0.00 0.00 0.00 1015.5
20191022031016 70 0 0.0 0.0 0.00 0.00 0.00 1015.5
20191022030615 70 22 0.0 1.0 0.00 0.00 0.00 1015.5
20191022030515 70 45 1.0 1.0 0.00 0.00 0.00 1015.5
20191022030115 70 0 0.0 0.0 0.00 0.00 0.00 1015.4
20191022025516 70 90 0.0 0.0 0.00 0.00 0.00 1015.6
20191022025415 70 90 0.0 0.0 0.00 0.00 0.00 1015.4
20191022025315 70 90 0.0 0.0 0.00 0.00 0.00 1015.5
20191022025215 70 90 0.0 0.0 0.00 0.00 0.00 1015.3
20191022024815 71 90 0.0 0.0 0.00 0.00 0.00 1015.3
20191022024516 71 90 0.0 0.0 0.00 0.00 0.00 1015.4
20191022024415 71 67 0.0 1.0 0.00 0.00 0.00 1015.4
20191022024016 72 67 0.0 0.0 0.00 0.00 0.00 1015.0
20191022023615 72 0 0.0 0.0 0.00 0.00 0.00 1015.0
20191022023515 72 337 0.0 0.0 0.00 0.00 0.00 1014.8
20191022023115 72 0 0.0 1.0 0.00 0.00 0.00 1015.0
20191022023016 72 337 0.0 0.0 0.00 0.00 0.00 1015.0
20191022022616 72 337 0.0 0.0 0.00 0.00 0.00 1015.1
20191022022515 72 337 0.0 0.0 0.00 0.00 0.00 1014.7
20191022022116 72 22 0.0 0.0 0.00 0.00 0.00 1014.8
20191022021815 72 22 0.0 0.0 0.00 0.00 0.00 1014.8
20191022021715 72 67 0.0 0.0 0.00 0.00 0.00 1014.8
20191022021615 73 67 0.0 0.0 0.00 0.00 0.00 1014.9
20191022021515 73 67 0.0 0.0 0.00 0.00 0.00 1014.7
20191022021415 73 67 0.0 0.0 0.00 0.00 0.00 1014.8
20191022021316 73 67 0.0 0.0 0.00 0.00 0.00 1014.9
20191022021216 73 67 0.0 0.0 0.00 0.00 0.00 1014.8
20191022021117 73 67 0.0 0.0 0.00 0.00 0.00 1014.7
20191022020715 73 22 0.0 0.0 0.00 0.00 0.00 1014.9
20191022020615 73 22 0.0 0.0 0.00 0.00 0.00 1014.8
20191022020215 74 315 0.0 0.0 0.00 0.00 0.00 1014.6
20191022015815 74 202 0.0 0.0 0.00 0.00 0.00 1014.5
20191022015716 74 225 1.0 1.0 0.00 0.00 0.00 1014.7
20191022015615 74 247 1.0 1.0 0.00 0.00 0.00 1014.7
20191022015516 74 247 1.0 1.0 0.00 0.00 0.00 1014.7
20191022015415 75 247 1.0 1.0 0.00 0.00 0.00 1014.6
20191022015315 75 247 1.0 1.0 0.00 0.00 0.00 1014.7
20191022015215 75 247 0.0 0.0 0.00 0.00 0.00 1014.5
20191022015115 75 225 0.0 0.0 0.00 0.00 0.00 1014.7
20191022014516 76 225 0.0 0.0 0.00 0.00 0.00 1014.4
20191022014415 76 270 0.0 0.0 0.00 0.00 0.00 1014.4
20191022014315 77 292 0.0 1.0 0.00 0.00 0.00 1014.4
20191022014216 77 225 1.0 1.0 0.00 0.00 0.00 1014.5
20191022014115 78 247 1.0 1.0 0.00 0.00 0.00 1014.3
20191022014015 78 247 1.0 2.0 0.00 0.00 0.00 1014.3
20191022013915 78 247 1.0 2.0 0.00 0.00 0.00 1014.3
20191022013815 79 247 2.0 2.0 0.00 0.00 0.00 1014.3
20191022013715 78 225 1.0 2.0 0.00 0.00 0.00 1014.3
20191022013615 79 225 1.0 2.0 0.00 0.00 0.00 1014.3
20191022013515 80 247 1.0 2.0 0.00 0.00 0.00 1014.4
20191022013415 81 225 1.0 2.0 0.00 0.00 0.00 1014.4
20191022013015 81 247 1.0 2.0 0.00 0.00 0.00 1013.9
20191022012015 80 247 2.0 3.0 0.00 0.00 0.00 1014.1
20191022011915 79 247 2.0 4.0 0.00 0.00 0.00 1014.1
20191022011815 79 225 0.0 3.0 0.00 0.00 0.00 1013.9
20191022011716 80 247 0.0 0.0 0.00 0.00 0.00 1014.1
20191022011615 80 225 0.0 1.0 0.00 0.00 0.00 1014.1
20191022011515 80 247 1.0 2.0 0.00 0.00 0.00 1014.1
20191022011415 79 225 2.0 3.0 0.00 0.00 0.00 1014.1
20191022011316 79 135 0.0 1.0 0.00 0.00 0.00 1014.1
20191022011215 80 202 0.0 1.0 0.00 0.00 0.00 1014.1
20191022011115 80 202 0.0 0.0 0.00 0.00 0.00 1014.0
20191022011015 80 202 0.0 0.0 0.00 0.00 0.00 1013.9
20191022010315 83 225 1.0 2.0 0.00 0.00 0.00 1013.9
20191022010215 83 247 1.0 2.0 0.00 0.00 0.00 1013.9
20191022005916 84 225 2.0 2.0 0.00 0.00 0.00 1013.8
20191022005815 84 247 1.0 2.0 0.00 0.00 0.00 1013.8
20191022005716 84 247 1.0 2.0 0.00 0.00 0.00 1013.8
20191022005616 84 247 1.0 2.0 0.00 0.00 0.00 1013.8
20191022005515 84 247 2.0 3.0 0.00 0.00 0.00 1013.6
20191022005416 84 270 1.0 2.0 0.00 0.00 0.00 1013.7
20191022005316 84 292 2.0 3.0 0.00 0.00 0.00 1013.8
20191022005216 84 270 2.0 3.0 0.00 0.00 0.00 1013.7
20191022005115 84 247 1.0 2.0 0.00 0.00 0.00 1013.5
20191022005016 85 270 1.0 1.0 0.00 0.00 0.00 1013.7
20191022004915 86 247 1.0 1.0 0.00 0.00 0.00 1013.7
20191022004815 86 247 1.0 2.0 0.00 0.00 0.00 1013.7
20191022004716 86 247 1.0 2.0 0.00 0.00 0.00 1013.7
20191022004616 86 202 1.0 2.0 0.00 0.00 0.00 1013.6
20191022004516 86 180 1.0 2.0 0.00 0.00 0.00 1013.7
20191022004416 86 225 1.0 2.0 0.00 0.00 0.00 1013.7
20191022004316 86 270 3.0 4.0 0.00 0.00 0.00 1013.7
20191022004216 86 247 3.0 4.0 0.00 0.00 0.00 1013.6
20191022003816 87 247 1.0 2.0 0.00 0.00 0.00 1013.7
20191022003716 87 180 1.0 2.0 0.00 0.00 0.00 1013.6
20191022003615 87 202 2.0 3.0 0.00 0.00 0.00 1013.6
20191022003515 87 225 1.0 3.0 0.00 0.00 0.00 1013.6
20191022003115 88 135 2.0 4.0 0.00 0.00 0.00 1013.7
20191022002716 88 270 2.0 3.0 0.00 0.00 0.00 1013.6
20191022002615 88 270 2.0 3.0 0.00 0.00 0.00 1013.5
20191022002215 89 247 1.0 3.0 0.00 0.00 0.00 1013.6
20191022002116 89 247 1.0 2.0 0.00 0.00 0.00 1013.7
20191022001416 89 225 3.0 5.0 0.00 0.00 0.00 1013.5
20191022001316 89 247 4.0 6.0 0.00 0.00 0.00 1013.6
20191022001216 89 225 3.0 5.0 0.00 0.00 0.00 1013.5
20191022000816 88 247 4.0 5.0 0.00 0.00 0.00 1013.6
20191022000715 90 270 5.0 7.0 0.00 0.00 0.00 1013.3
20191022000615 90 225 4.0 5.0 0.00 0.00 0.00 1013.3
20191022000515 90 315 4.0 6.0 0.00 0.00 0.00 1013.5
20191022000416 90 247 5.0 6.0 0.00 0.00 0.00 1013.5